Time;durP1;ratioP1;P1;durP2;ratioP2;P2;SDS_P1;SDS_P2;PMS_P1;PMS_P2;Temp;Humidity;BMP_temperature;BMP_pressure;BME280_temperature;BME280_humidity;BME280_pressure;Samples;Min_cycle;Max_cycle;Signal;HPM_P1;HPM_P2
2023/12/26 00:01:27;;;;;;;0.28;0.10;;;9.60;99.90;;;;;;5037800;28;20049;-36
2023/12/26 00:03:53;;;;;;;0.80;0.20;;;9.60;99.90;;;;;;5035483;28;20125;-36
2023/12/26 00:06:20;;;;;;;0.70;0.30;;;9.60;99.90;;;;;;5037893;28;21076;-36
2023/12/26 00:08:46;;;;;;;1.27;0.40;;;9.70;99.90;;;;;;5036191;28;20049;-36
2023/12/26 00:11:12;;;;;;;2.35;0.50;;;9.70;99.90;;;;;;5030359;28;75568;-36
2023/12/26 00:15:37;;;;;;;1.10;0.60;;;9.70;99.90;;;;;;5049318;27;73308;-34
2023/12/26 00:18:48;;;;;;;2.22;0.90;;;9.70;99.90;;;;;;5012010;27;20872;-36
2023/12/26 00:21:14;;;;;;;1.85;0.85;;;9.80;99.90;;;;;;5014921;28;20049;-37
2023/12/26 00:23:40;;;;;;;3.53;0.50;;;9.70;99.90;;;;;;5018600;28;20052;-37
2023/12/26 00:26:06;;;;;;;2.53;0.55;;;9.80;99.90;;;;;;5033512;28;20041;-36
2023/12/26 00:28:31;;;;;;;1.10;0.20;;;9.80;99.90;;;;;;5038228;28;20038;-36
2023/12/26 00:30:57;;;;;;;1.38;0.38;;;9.90;99.90;;;;;;5030818;28;20061;-37
2023/12/26 00:33:23;;;;;;;0.93;0.30;;;9.90;99.90;;;;;;5041295;28;20041;-37
2023/12/26 00:35:49;;;;;;;1.90;0.40;;;9.90;99.90;;;;;;5029777;28;20065;-37
2023/12/26 00:38:15;;;;;;;1.55;0.50;;;10.00;99.90;;;;;;5040610;28;20499;-36
2023/12/26 00:40:41;;;;;;;1.95;0.70;;;10.00;99.90;;;;;;5035215;28;20053;-37
2023/12/26 00:43:08;;;;;;;2.45;0.70;;;10.00;99.90;;;;;;5039712;28;20068;-36
2023/12/26 00:45:34;;;;;;;1.33;0.40;;;10.10;99.90;;;;;;5036747;28;20503;-36
2023/12/26 00:48:00;;;;;;;2.97;0.47;;;10.10;99.90;;;;;;5040378;28;20061;-36
2023/12/26 00:50:26;;;;;;;4.82;0.60;;;10.20;99.90;;;;;;5028972;28;20049;-36
2023/12/26 00:52:52;;;;;;;5.80;0.70;;;10.30;99.90;;;;;;5027685;28;20053;-36
2023/12/26 00:55:18;;;;;;;5.68;1.13;;;10.30;99.90;;;;;;5019908;28;20056;-36
2023/12/26 00:57:44;;;;;;;5.60;1.00;;;10.40;99.90;;;;;;5015186;28;20050;-36
2023/12/26 01:00:10;;;;;;;3.10;0.65;;;10.30;99.90;;;;;;5017392;28;20172;-36
2023/12/26 01:02:36;;;;;;;3.03;0.77;;;10.20;99.90;;;;;;5033503;28;20045;-35
2023/12/26 01:05:02;;;;;;;2.15;0.30;;;10.00;99.90;;;;;;5033498;28;20164;-36
2023/12/26 01:07:29;;;;;;;3.22;0.43;;;9.80;99.90;;;;;;5035207;28;20457;-36
2023/12/26 01:09:55;;;;;;;2.50;0.20;;;9.60;99.90;;;;;;5035399;28;20049;-37
2023/12/26 01:12:21;;;;;;;1.88;0.20;;;9.50;99.90;;;;;;5035617;28;20132;-35
2023/12/26 01:14:47;;;;;;;3.67;0.47;;;9.40;99.90;;;;;;5033694;28;20048;-36
2023/12/26 01:17:13;;;;;;;1.98;0.30;;;9.40;99.90;;;;;;5036396;28;20498;-36
2023/12/26 01:19:39;;;;;;;2.28;0.20;;;9.30;99.90;;;;;;5045407;28;20124;-36
2023/12/26 01:22:04;;;;;;;4.93;1.05;;;9.30;99.90;;;;;;5038133;28;20065;-36
2023/12/26 01:24:30;;;;;;;4.07;0.40;;;9.30;99.90;;;;;;5037247;28;20053;-36
2023/12/26 01:26:56;;;;;;;3.90;0.43;;;9.30;99.90;;;;;;5034227;28;20129;-36
2023/12/26 01:29:22;;;;;;;5.95;0.47;;;9.30;99.90;;;;;;5023364;28;20052;-36
2023/12/26 01:31:48;;;;;;;7.07;0.52;;;9.20;99.90;;;;;;5027879;28;20077;-36
2023/12/26 01:34:14;;;;;;;5.97;0.47;;;9.20;99.90;;;;;;5026850;28;20054;-36
2023/12/26 01:36:40;;;;;;;2.00;0.50;;;9.20;99.90;;;;;;5005396;28;20049;-35
2023/12/26 01:39:06;;;;;;;4.93;0.40;;;9.20;99.90;;;;;;5014545;28;20038;-36
2023/12/26 01:41:32;;;;;;;1.65;0.30;;;9.20;99.90;;;;;;5022993;28;20108;-36
2023/12/26 01:43:58;;;;;;;3.22;0.22;;;9.20;99.90;;;;;;5021075;28;20037;-37
2023/12/26 01:46:24;;;;;;;2.70;0.52;;;9.20;99.90;;;;;;5024963;28;20080;-36
2023/12/26 01:48:51;;;;;;;2.28;0.28;;;9.30;99.90;;;;;;5021769;28;20045;-36
2023/12/26 01:51:19;;;;;;;4.45;0.50;;;9.30;99.90;;;;;;5028832;28;21010;-36
2023/12/26 01:53:45;;;;;;;3.33;0.32;;;9.30;99.90;;;;;;5024726;28;20051;-36
2023/12/26 01:56:16;;;;;;;6.72;0.63;;;9.40;99.90;;;;;;5024321;28;20049;-36
2023/12/26 01:58:45;;;;;;;4.57;0.40;;;9.40;99.90;;;;;;5021109;28;20057;-36
2023/12/26 02:01:12;;;;;;;7.35;0.70;;;9.40;99.90;;;;;;5023974;28;20479;-36
2023/12/26 02:03:38;;;;;;;4.38;0.52;;;9.40;99.90;;;;;;5021147;28;20052;-36
2023/12/26 02:06:05;;;;;;;4.60;0.45;;;9.40;99.90;;;;;;5020640;28;20494;-36
2023/12/26 02:08:31;;;;;;;9.07;0.98;;;9.50;99.90;;;;;;5020413;28;20061;-37
2023/12/26 02:10:57;;;;;;;4.50;0.60;;;9.50;99.90;;;;;;5023852;28;20040;-36
2023/12/26 02:13:23;;;;;;;5.38;0.75;;;9.60;99.90;;;;;;5024722;28;20053;-36
2023/12/26 02:15:51;;;;;;;4.97;0.75;;;9.50;99.90;;;;;;5022492;28;20403;-36
2023/12/26 02:18:18;;;;;;;5.38;0.75;;;9.60;99.90;;;;;;5020690;28;20548;-36
2023/12/26 02:20:44;;;;;;;7.57;1.27;;;9.60;99.90;;;;;;5050009;28;20615;-36
2023/12/26 02:23:09;;;;;;;9.85;0.80;;;9.70;99.90;;;;;;5031128;28;20054;-36
2023/12/26 02:25:35;;;;;;;7.00;0.63;;;9.70;99.90;;;;;;5026756;28;20049;-36
2023/12/26 02:28:03;;;;;;;5.28;1.00;;;9.70;99.90;;;;;;5028167;28;20471;-36
2023/12/26 02:30:30;;;;;;;7.40;0.70;;;9.80;99.90;;;;;;5024080;28;20057;-36
2023/12/26 02:32:58;;;;;;;11.60;0.82;;;9.80;99.90;;;;;;5024661;28;20061;-36
2023/12/26 02:35:24;;;;;;;5.93;0.70;;;9.80;99.90;;;;;;5021021;28;20046;-36
2023/12/26 02:37:50;;;;;;;5.03;0.70;;;9.80;99.90;;;;;;5023207;28;20056;-36
2023/12/26 02:40:16;;;;;;;4.55;1.02;;;9.80;99.90;;;;;;5021553;28;20053;-36
2023/12/26 02:42:41;;;;;;;6.18;0.98;;;9.80;99.90;;;;;;5026561;28;20071;-37
2023/12/26 02:45:08;;;;;;;5.22;0.70;;;9.80;99.90;;;;;;5023068;28;20045;-36
2023/12/26 02:47:34;;;;;;;5.95;1.15;;;9.80;99.90;;;;;;5019465;28;20063;-36
2023/12/26 02:50:00;;;;;;;5.82;1.05;;;9.70;99.90;;;;;;5020031;28;20065;-36
2023/12/26 02:52:25;;;;;;;3.30;0.90;;;9.70;99.90;;;;;;5021351;28;20054;-35
2023/12/26 02:54:51;;;;;;;3.65;0.50;;;9.70;99.90;;;;;;5025786;28;20095;-36
2023/12/26 02:57:17;;;;;;;3.33;0.50;;;9.70;99.90;;;;;;5026043;28;20114;-37
2023/12/26 02:59:43;;;;;;;7.30;0.80;;;9.60;99.90;;;;;;5025389;28;20073;-36
2023/12/26 03:02:08;;;;;;;8.63;1.42;;;9.70;99.90;;;;;;5020379;28;20388;-37
2023/12/26 03:04:35;;;;;;;6.45;0.88;;;9.70;99.90;;;;;;5009169;28;20512;-36
2023/12/26 03:07:00;;;;;;;4.07;0.60;;;9.70;99.90;;;;;;5002765;28;20061;-36
2023/12/26 03:09:26;;;;;;;5.88;0.80;;;9.70;99.90;;;;;;5008514;28;20042;-37
2023/12/26 03:11:52;;;;;;;5.20;0.68;;;9.70;99.90;;;;;;5007803;28;20128;-41
2023/12/26 03:14:18;;;;;;;7.53;1.20;;;9.80;99.90;;;;;;4998401;28;20166;-36
2023/12/26 03:16:43;;;;;;;7.60;0.90;;;9.80;99.90;;;;;;5004053;28;20120;-36
2023/12/26 03:19:09;;;;;;;7.70;0.73;;;9.80;99.90;;;;;;5003220;28;20042;-36
2023/12/26 03:21:35;;;;;;;9.02;0.95;;;9.80;99.90;;;;;;5002627;28;20085;-36
2023/12/26 03:24:01;;;;;;;9.18;1.70;;;9.80;99.90;;;;;;5019162;28;20525;-36
2023/12/26 03:26:27;;;;;;;10.63;1.13;;;9.90;99.90;;;;;;5025269;28;20099;-37
2023/12/26 03:28:52;;;;;;;9.45;1.10;;;9.80;99.90;;;;;;5022976;28;20111;-36
2023/12/26 03:31:18;;;;;;;6.13;0.60;;;9.80;99.90;;;;;;5027458;28;20063;-36
2023/12/26 03:33:44;;;;;;;6.63;1.40;;;9.60;99.90;;;;;;5018317;28;20130;-36
2023/12/26 03:36:10;;;;;;;4.57;0.40;;;9.10;99.90;;;;;;5021653;28;20053;-36
2023/12/26 03:38:36;;;;;;;2.28;0.30;;;8.70;99.90;;;;;;5025191;28;20052;-36
2023/12/26 03:41:02;;;;;;;3.25;0.50;;;8.40;99.90;;;;;;5025883;28;20461;-36
2023/12/26 03:43:28;;;;;;;5.47;0.50;;;8.30;99.90;;;;;;5021285;28;20049;-36
2023/12/26 03:45:54;;;;;;;5.32;0.60;;;8.20;99.90;;;;;;5022422;28;20053;-36
2023/12/26 03:48:20;;;;;;;5.45;0.50;;;8.20;99.90;;;;;;5018972;28;20049;-37
2023/12/26 03:50:46;;;;;;;6.90;0.40;;;8.20;99.90;;;;;;5027687;28;20057;-36
2023/12/26 03:53:12;;;;;;;8.65;0.70;;;8.20;99.90;;;;;;5024100;28;20045;-36
2023/12/26 03:55:37;;;;;;;7.50;0.73;;;8.20;99.90;;;;;;5005869;28;20049;-36
2023/12/26 03:58:03;;;;;;;5.28;0.80;;;8.20;99.90;;;;;;5020139;28;20057;-36
2023/12/26 04:00:29;;;;;;;3.67;0.60;;;8.20;99.90;;;;;;5021852;28;20066;-36
2023/12/26 04:02:55;;;;;;;6.03;0.80;;;8.30;99.90;;;;;;5022432;28;20041;-36
2023/12/26 04:05:21;;;;;;;8.77;1.48;;;8.30;99.90;;;;;;5017979;28;20167;-36
2023/12/26 04:07:48;;;;;;;7.22;0.70;;;8.30;99.90;;;;;;5021750;28;20132;-37
2023/12/26 04:10:13;;;;;;;4.53;0.73;;;8.40;99.90;;;;;;5022022;28;20431;-36
2023/12/26 04:12:41;;;;;;;8.77;0.80;;;8.40;99.90;;;;;;5021403;28;20057;-36
2023/12/26 04:15:07;;;;;;;10.32;1.23;;;8.30;99.90;;;;;;5020378;28;20053;-36
2023/12/26 04:17:33;;;;;;;10.00;0.75;;;8.30;99.90;;;;;;5021376;28;20107;-36
2023/12/26 04:19:59;;;;;;;6.38;0.75;;;8.30;99.90;;;;;;5021625;28;20771;-35
2023/12/26 04:22:24;;;;;;;7.22;0.80;;;8.30;99.90;;;;;;5022115;28;20053;-36
2023/12/26 04:24:50;;;;;;;5.68;1.45;;;8.30;99.90;;;;;;5021365;28;20061;-36
2023/12/26 04:27:16;;;;;;;5.70;0.63;;;8.20;99.90;;;;;;5021446;28;20387;-37
2023/12/26 04:29:42;;;;;;;4.10;0.50;;;8.20;99.90;;;;;;5020233;28;20104;-36
2023/12/26 04:32:10;;;;;;;6.82;0.57;;;8.20;99.90;;;;;;5023566;28;20053;-36
2023/12/26 04:34:40;;;;;;;4.13;0.60;;;8.10;99.90;;;;;;5019903;28;20172;-42
2023/12/26 04:37:06;;;;;;;5.50;0.77;;;8.20;99.90;;;;;;5020166;28;20047;-37
2023/12/26 04:39:31;;;;;;;7.18;0.70;;;8.20;99.90;;;;;;5022469;28;20403;-36
2023/12/26 04:41:57;;;;;;;6.82;0.73;;;8.20;99.90;;;;;;5019429;28;20046;-35
2023/12/26 04:44:24;;;;;;;6.13;0.70;;;8.20;99.90;;;;;;5017075;28;20060;-34
2023/12/26 04:46:51;;;;;;;6.68;0.63;;;8.30;99.90;;;;;;5021759;28;20049;-35
2023/12/26 04:49:16;;;;;;;9.38;0.73;;;8.20;99.90;;;;;;5017743;28;20138;-37
2023/12/26 04:51:42;;;;;;;6.00;0.70;;;8.30;99.90;;;;;;5021422;28;20459;-34
2023/12/26 04:54:08;;;;;;;5.45;1.13;;;8.30;99.90;;;;;;5024372;28;20037;-35
2023/12/26 04:56:36;;;;;;;5.50;0.93;;;8.30;99.90;;;;;;5020798;28;20423;-36
2023/12/26 04:59:03;;;;;;;5.45;0.70;;;8.30;99.90;;;;;;5018479;28;20140;-35
2023/12/26 05:01:29;;;;;;;4.57;0.70;;;8.30;99.90;;;;;;5023288;28;20056;-35
2023/12/26 05:03:55;;;;;;;6.15;1.08;;;8.30;99.90;;;;;;5020563;28;20052;-35
2023/12/26 05:06:20;;;;;;;5.38;0.70;;;8.30;99.90;;;;;;5024476;28;20057;-36
2023/12/26 05:08:46;;;;;;;6.78;0.60;;;8.30;99.90;;;;;;5021323;28;20488;-35
2023/12/26 05:11:23;;;;;;;7.35;1.00;;;8.30;99.90;;;;;;5025080;28;20049;-35
2023/12/26 05:13:50;;;;;;;7.70;0.80;;;8.30;99.90;;;;;;5021853;28;20042;-37
2023/12/26 05:16:17;;;;;;;6.95;1.00;;;8.30;99.90;;;;;;5020889;28;20522;-36
2023/12/26 05:18:43;;;;;;;8.30;0.90;;;8.20;99.90;;;;;;5030814;28;20060;-36
2023/12/26 05:21:20;;;;;;;5.63;0.47;;;8.20;99.90;;;;;;5023942;28;20045;-36
2023/12/26 05:23:46;;;;;;;5.30;0.80;;;8.20;99.90;;;;;;5019131;28;20194;-36
2023/12/26 05:26:13;;;;;;;3.70;0.75;;;8.20;99.90;;;;;;5022338;28;20048;-36
2023/12/26 05:28:38;;;;;;;7.60;0.98;;;8.20;99.90;;;;;;5027216;28;20157;-36
2023/12/26 05:31:05;;;;;;;8.25;0.90;;;8.30;99.90;;;;;;5023435;28;20140;-36
2023/12/26 05:33:31;;;;;;;8.38;0.73;;;8.30;99.90;;;;;;5022257;28;20049;-36
2023/12/26 05:35:57;;;;;;;3.20;0.70;;;8.40;99.90;;;;;;5025162;28;20698;-36
2023/12/26 05:38:23;;;;;;;5.85;1.23;;;8.40;99.90;;;;;;5021572;28;20052;-36
2023/12/26 05:40:48;;;;;;;5.75;0.80;;;8.40;99.90;;;;;;5021556;28;20049;-36
2023/12/26 05:43:14;;;;;;;9.65;0.95;;;8.50;99.90;;;;;;5024524;28;20056;-38
2023/12/26 05:45:40;;;;;;;3.20;0.70;;;8.50;99.90;;;;;;5025222;28;20553;-36
2023/12/26 05:48:06;;;;;;;4.85;0.98;;;8.60;99.90;;;;;;5022118;28;20042;-36
2023/12/26 05:50:32;;;;;;;6.88;1.30;;;8.60;99.90;;;;;;5021958;28;20495;-38
2023/12/26 05:52:58;;;;;;;6.50;0.80;;;8.60;99.90;;;;;;5023362;28;20143;-36
2023/12/26 05:55:24;;;;;;;5.72;1.40;;;8.70;99.90;;;;;;5024598;28;20054;-35
2023/12/26 05:57:49;;;;;;;6.45;0.88;;;8.70;99.90;;;;;;5021877;28;20061;-36
2023/12/26 06:00:15;;;;;;;8.30;0.63;;;8.80;99.90;;;;;;5018613;28;20111;-35
2023/12/26 06:02:41;;;;;;;9.23;0.93;;;8.80;99.90;;;;;;5023933;28;20504;-36
2023/12/26 06:05:07;;;;;;;8.50;0.95;;;8.80;99.90;;;;;;5021644;28;20060;-36
2023/12/26 06:07:33;;;;;;;7.97;1.27;;;8.80;99.90;;;;;;5018409;28;20188;-36
2023/12/26 06:10:00;;;;;;;6.55;0.60;;;8.90;99.90;;;;;;5019242;28;20045;-36
2023/12/26 06:12:28;;;;;;;6.05;0.90;;;8.90;99.90;;;;;;5027479;28;20048;-36
2023/12/26 06:14:54;;;;;;;6.13;1.42;;;8.90;99.90;;;;;;5023108;28;20495;-36
2023/12/26 06:17:21;;;;;;;7.25;0.98;;;8.90;99.90;;;;;;5049777;28;20049;-36
2023/12/26 06:19:48;;;;;;;12.07;0.80;;;8.90;99.90;;;;;;5022624;28;20073;-36
2023/12/26 06:22:14;;;;;;;9.98;0.80;;;8.80;99.90;;;;;;5022802;28;20740;-36
2023/12/26 06:24:40;;;;;;;9.20;0.88;;;8.80;99.90;;;;;;5025802;28;20118;-36
2023/12/26 06:27:05;;;;;;;8.40;1.08;;;8.80;99.90;;;;;;5021152;28;20495;-36
2023/12/26 06:29:31;;;;;;;10.38;1.27;;;8.70;99.90;;;;;;5027484;28;20083;-50
2023/12/26 06:31:57;;;;;;;5.78;0.82;;;8.70;99.90;;;;;;5023713;28;20507;-35
2023/12/26 06:34:23;;;;;;;6.35;1.42;;;8.60;99.90;;;;;;5026681;28;20048;-36
2023/12/26 06:36:49;;;;;;;8.32;0.85;;;8.60;99.90;;;;;;5023119;28;20431;-36
2023/12/26 06:39:15;;;;;;;7.43;1.10;;;8.60;99.90;;;;;;5022752;28;20560;-35
2023/12/26 06:41:42;;;;;;;7.22;1.38;;;8.50;99.90;;;;;;5021427;28;20103;-36
2023/12/26 06:44:10;;;;;;;8.07;1.25;;;8.60;99.90;;;;;;5030759;28;20479;-36
2023/12/26 06:46:42;;;;;;;10.32;1.13;;;8.50;99.90;;;;;;5041022;28;20987;-37
2023/12/26 06:49:08;;;;;;;10.18;1.00;;;8.50;99.90;;;;;;5020870;28;20805;-36
2023/12/26 06:51:39;;;;;;;7.38;0.93;;;8.50;99.90;;;;;;5022222;28;20103;-36
2023/12/26 06:54:05;;;;;;;8.55;0.70;;;8.50;99.90;;;;;;5016226;28;20049;-36
2023/12/26 06:56:30;;;;;;;10.35;1.00;;;8.50;99.90;;;;;;5024599;28;20491;-36
2023/12/26 06:58:57;;;;;;;11.00;1.33;;;8.50;99.90;;;;;;5022945;28;20057;-36
2023/12/26 07:01:23;;;;;;;8.07;1.45;;;8.50;99.90;;;;;;5024774;28;20550;-35
2023/12/26 07:03:51;;;;;;;7.45;1.15;;;8.50;99.90;;;;;;5028135;28;20136;-36
2023/12/26 07:06:17;;;;;;;8.07;1.10;;;8.60;99.90;;;;;;5026872;28;20071;-36
2023/12/26 07:08:42;;;;;;;7.25;0.98;;;8.60;99.90;;;;;;5020765;28;20109;-36
2023/12/26 07:11:08;;;;;;;10.25;1.45;;;8.60;99.90;;;;;;5021770;28;20100;-37
2023/12/26 07:13:34;;;;;;;12.73;1.55;;;8.60;99.90;;;;;;5024350;28;20053;-36
2023/12/26 07:16:00;;;;;;;9.70;1.85;;;8.60;99.90;;;;;;5025617;28;20557;-36
2023/12/26 07:18:26;;;;;;;14.00;1.23;;;8.60;99.90;;;;;;5020977;28;20556;-35
2023/12/26 07:20:51;;;;;;;13.80;1.38;;;8.60;99.90;;;;;;5021284;28;20045;-36
2023/12/26 07:23:17;;;;;;;6.75;1.00;;;8.60;99.90;;;;;;5022720;28;20555;-36
2023/12/26 07:25:43;;;;;;;8.93;1.17;;;8.60;99.90;;;;;;5021169;28;20045;-36
2023/12/26 07:28:10;;;;;;;8.23;1.13;;;8.60;99.90;;;;;;5025054;28;21739;-36
2023/12/26 07:30:39;;;;;;;11.80;1.60;;;8.60;99.90;;;;;;5018263;28;20045;-36
2023/12/26 07:33:05;;;;;;;7.65;1.20;;;8.60;99.90;;;;;;5020600;28;20396;-36
2023/12/26 07:35:31;;;;;;;9.40;0.95;;;8.60;99.90;;;;;;5021072;28;20145;-36
2023/12/26 07:37:56;;;;;;;7.07;1.35;;;8.60;99.90;;;;;;5017184;28;20842;-35
2023/12/26 07:40:22;;;;;;;6.47;0.88;;;8.60;99.90;;;;;;5021303;28;20053;-40
2023/12/26 07:42:48;;;;;;;7.28;1.25;;;8.50;99.90;;;;;;5022703;28;20049;-35
2023/12/26 07:45:14;;;;;;;6.82;1.10;;;8.50;99.90;;;;;;5024669;28;20068;-34
2023/12/26 07:47:40;;;;;;;8.45;1.30;;;8.50;99.90;;;;;;5021827;28;20094;-35
2023/12/26 07:50:06;;;;;;;5.68;1.25;;;8.40;99.90;;;;;;5020746;28;20038;-35
2023/12/26 07:52:31;;;;;;;7.72;0.90;;;8.30;99.90;;;;;;5021566;28;20156;-35
2023/12/26 07:54:57;;;;;;;9.02;1.13;;;8.30;99.90;;;;;;5021128;28;20361;-35
2023/12/26 07:57:23;;;;;;;11.55;1.58;;;8.30;99.90;;;;;;5024442;28;20045;-35
2023/12/26 07:59:49;;;;;;;5.43;1.20;;;8.30;99.90;;;;;;5021885;28;20301;-35
2023/12/26 08:02:15;;;;;;;6.07;1.10;;;8.30;99.90;;;;;;5018928;28;20490;-35
2023/12/26 08:04:40;;;;;;;10.55;1.73;;;8.30;99.90;;;;;;5020145;28;20058;-35
2023/12/26 08:07:07;;;;;;;12.52;1.40;;;8.30;99.90;;;;;;5024713;28;20048;-35
2023/12/26 08:09:34;;;;;;;8.85;0.98;;;8.40;99.90;;;;;;5023613;28;20045;-35
2023/12/26 08:12:00;;;;;;;8.65;0.95;;;8.40;99.90;;;;;;5022129;28;20049;-35
2023/12/26 08:14:25;;;;;;;9.10;1.40;;;8.30;99.90;;;;;;5022859;28;20559;-35
2023/12/26 08:16:51;;;;;;;9.23;0.95;;;8.30;99.90;;;;;;5022627;28;20077;-42
2023/12/26 08:19:17;;;;;;;8.07;1.60;;;8.20;99.90;;;;;;5021659;28;20049;-36
2023/12/26 08:21:43;;;;;;;12.40;1.17;;;8.20;99.90;;;;;;5019139;28;20046;-36
2023/12/26 08:24:09;;;;;;;8.70;1.30;;;8.20;99.90;;;;;;5021928;28;20051;-36
2023/12/26 08:26:35;;;;;;;9.10;0.85;;;8.20;99.90;;;;;;5020019;28;20052;-35
2023/12/26 08:29:01;;;;;;;9.48;1.55;;;8.20;99.90;;;;;;5023545;28;20033;-35
2023/12/26 08:31:26;;;;;;;7.95;1.08;;;8.10;99.90;;;;;;5019601;28;20068;-36
2023/12/26 08:33:52;;;;;;;9.40;1.02;;;8.20;99.90;;;;;;5020988;28;20147;-36
2023/12/26 08:36:18;;;;;;;9.70;1.02;;;8.20;99.90;;;;;;5019168;28;20060;-36
2023/12/26 08:38:44;;;;;;;9.18;1.42;;;8.20;99.90;;;;;;5019951;28;20071;-36
2023/12/26 08:41:12;;;;;;;9.80;1.23;;;8.20;99.90;;;;;;5025057;28;20140;-36
2023/12/26 08:43:38;;;;;;;9.40;1.20;;;8.20;99.90;;;;;;5024199;28;20060;-37
2023/12/26 08:46:04;;;;;;;10.32;1.10;;;8.20;99.90;;;;;;5026234;28;20037;-36
2023/12/26 08:48:30;;;;;;;10.02;1.33;;;8.20;99.90;;;;;;5023917;28;20057;-35
2023/12/26 08:50:55;;;;;;;8.30;1.08;;;8.20;99.90;;;;;;5053391;28;20526;-36
2023/12/26 08:53:21;;;;;;;9.70;1.42;;;8.20;99.90;;;;;;5020770;28;20050;-36
2023/12/26 08:55:47;;;;;;;12.43;1.92;;;8.30;99.90;;;;;;5026110;28;20391;-35
2023/12/26 08:58:14;;;;;;;15.23;1.75;;;8.40;99.90;;;;;;5024965;28;20042;-36
2023/12/26 09:00:40;;;;;;;5.68;1.08;;;8.40;99.90;;;;;;5021397;28;20098;-35
2023/12/26 09:03:07;;;;;;;9.40;1.10;;;8.40;99.90;;;;;;5027313;28;20081;-34
2023/12/26 09:05:34;;;;;;;10.07;1.48;;;8.50;99.90;;;;;;5024922;28;20045;-38
2023/12/26 09:07:59;;;;;;;11.27;1.45;;;8.50;99.90;;;;;;5026449;28;20061;-34
2023/12/26 09:10:25;;;;;;;11.45;2.03;;;8.50;99.90;;;;;;5024532;28;20045;-37
2023/12/26 09:12:51;;;;;;;8.75;1.27;;;8.60;99.90;;;;;;5024820;28;20583;-35
2023/12/26 09:15:17;;;;;;;11.48;1.33;;;8.60;99.90;;;;;;5024215;28;20113;-36
2023/12/26 09:17:43;;;;;;;7.03;1.20;;;8.70;99.90;;;;;;5022835;28;20136;-35
2023/12/26 09:20:10;;;;;;;8.38;1.35;;;8.70;99.90;;;;;;5053780;28;20056;-35
2023/12/26 09:22:36;;;;;;;7.25;0.85;;;8.80;99.90;;;;;;5026240;28;20503;-36
2023/12/26 09:25:02;;;;;;;12.85;2.13;;;8.80;99.90;;;;;;5021846;28;20633;-35
2023/12/26 09:27:28;;;;;;;9.85;1.25;;;8.70;99.90;;;;;;5024815;28;20076;-35
2023/12/26 09:29:54;;;;;;;10.18;1.33;;;8.70;99.90;;;;;;5024110;28;20053;-35
2023/12/26 09:32:20;;;;;;;8.00;1.45;;;8.80;99.90;;;;;;5017944;28;20399;-35
2023/12/26 09:34:45;;;;;;;10.68;1.05;;;8.80;99.90;;;;;;5026546;28;20057;-35
2023/12/26 09:37:11;;;;;;;11.48;1.23;;;8.80;99.90;;;;;;5025844;28;20058;-35
2023/12/26 09:39:37;;;;;;;9.48;1.65;;;8.80;99.90;;;;;;5018277;28;20042;-35
2023/12/26 09:42:04;;;;;;;8.68;1.50;;;8.80;99.90;;;;;;5021637;28;20053;-35
2023/12/26 09:44:30;;;;;;;8.75;1.15;;;8.80;99.90;;;;;;5017644;28;20045;-35
2023/12/26 09:46:58;;;;;;;12.48;1.65;;;8.80;99.90;;;;;;5019837;28;20045;-35
2023/12/26 09:49:23;;;;;;;10.55;1.33;;;8.80;99.90;;;;;;5022294;28;20490;-35
2023/12/26 09:51:56;;;;;;;8.95;1.45;;;8.80;99.90;;;;;;5022465;28;20056;-35
2023/12/26 09:54:26;;;;;;;13.35;1.45;;;8.80;99.90;;;;;;5015894;28;20271;-35
2023/12/26 09:56:52;;;;;;;10.20;1.85;;;8.80;99.90;;;;;;5022141;28;20057;-35
2023/12/26 09:59:19;;;;;;;9.00;1.20;;;8.90;99.90;;;;;;5020184;28;20071;-35
2023/12/26 10:01:46;;;;;;;8.50;1.27;;;8.90;99.90;;;;;;5022200;28;20057;-36
2023/12/26 10:04:12;;;;;;;13.07;1.42;;;9.00;99.90;;;;;;5024708;28;20116;-35
2023/12/26 10:06:39;;;;;;;7.18;1.27;;;9.00;99.90;;;;;;5021594;28;20058;-35
2023/12/26 10:09:05;;;;;;;7.90;1.23;;;9.00;99.90;;;;;;5024573;28;20076;-37
2023/12/26 10:11:32;;;;;;;11.30;1.40;;;9.10;99.90;;;;;;5026257;28;20760;-35
2023/12/26 10:13:58;;;;;;;14.23;1.55;;;9.00;99.90;;;;;;5024664;28;20053;-35
2023/12/26 10:16:24;;;;;;;11.25;1.08;;;9.00;99.90;;;;;;5024114;28;20094;-35
2023/12/26 10:18:52;;;;;;;6.85;1.30;;;9.00;99.90;;;;;;5022772;28;20057;-35
2023/12/26 10:21:18;;;;;;;8.63;1.20;;;8.90;99.90;;;;;;5023772;28;20226;-35
2023/12/26 10:23:45;;;;;;;8.02;1.10;;;9.00;99.90;;;;;;5025497;28;20215;-35
2023/12/26 10:26:11;;;;;;;12.77;1.83;;;9.10;99.90;;;;;;5024398;28;20586;-35
2023/12/26 10:28:38;;;;;;;12.35;1.38;;;9.20;99.90;;;;;;5025352;28;20140;-35
2023/12/26 10:31:15;;;;;;;6.18;0.80;;;9.30;99.90;;;;;;5023289;28;20616;-35
2023/12/26 10:33:42;;;;;;;8.07;1.10;;;9.40;99.90;;;;;;5023213;28;20067;-35
2023/12/26 10:36:11;;;;;;;11.75;2.05;;;9.40;99.90;;;;;;5023843;28;20179;-35
2023/12/26 10:38:39;;;;;;;12.30;1.70;;;9.30;99.90;;;;;;5027046;28;20053;-35
2023/12/26 10:41:23;;;;;;;9.00;1.70;;;9.30;99.90;;;;;;5023275;28;20045;-36
2023/12/26 10:43:50;;;;;;;13.50;1.45;;;9.20;99.90;;;;;;5052328;28;20168;-35
2023/12/26 10:46:18;;;;;;;12.02;1.77;;;9.30;99.90;;;;;;5023548;28;20136;-35
2023/12/26 10:48:47;;;;;;;7.68;1.20;;;9.20;99.90;;;;;;5020960;28;20061;-36
2023/12/26 10:51:15;;;;;;;9.68;1.40;;;9.20;99.90;;;;;;5024480;28;20056;-35
2023/12/26 10:53:49;;;;;;;12.95;1.40;;;9.20;99.90;;;;;;5022739;28;20046;-40
2023/12/26 10:56:15;;;;;;;8.93;1.20;;;9.20;99.90;;;;;;5023829;28;20136;-36
2023/12/26 10:58:41;;;;;;;8.82;1.75;;;9.30;99.90;;;;;;5020551;28;20148;-36
2023/12/26 13:53:24;;;;;;;12.27;2.45;;;8.80;99.90;;;;;;5024568;28;20144;-35
2023/12/26 13:56:27;;;;;;;6.53;1.70;;;8.80;99.90;;;;;;5026534;28;20147;-35
2023/12/26 13:59:30;;;;;;;8.63;1.58;;;8.80;99.90;;;;;;5021925;28;20062;-35
2023/12/26 14:02:33;;;;;;;6.38;0.80;;;8.70;99.90;;;;;;5021325;28;20065;-45
2023/12/26 14:05:18;;;;;;;;;;;8.70;99.90;;;;;;5026930;28;20061;-42
2023/12/26 14:08:21;;;;;;;7.70;1.10;;;8.60;99.90;;;;;;5025835;28;20008;-35
2023/12/26 14:11:26;;;;;;;7.65;1.27;;;8.50;99.90;;;;;;5027021;28;20065;-35
2023/12/26 14:14:29;;;;;;;8.52;2.33;;;8.40;99.90;;;;;;5025339;28;20459;-35
2023/12/26 14:17:33;;;;;;;9.95;4.00;;;8.40;99.90;;;;;;5023002;28;20052;-35
2023/12/26 14:20:36;;;;;;;7.20;2.38;;;8.40;99.90;;;;;;5020596;28;20107;-37
2023/12/26 14:23:39;;;;;;;7.72;1.08;;;8.40;99.90;;;;;;5018859;28;20058;-36
2023/12/26 14:26:26;;;;;;;;;;;8.30;99.90;;;;;;5023962;28;20053;-35
2023/12/26 14:29:29;;;;;;;9.23;1.23;;;8.20;99.90;;;;;;5023337;28;19921;-35
2023/12/26 14:32:33;;;;;;;5.13;1.20;;;8.10;99.90;;;;;;5016496;28;20053;-35
2023/12/26 14:35:36;;;;;;;9.27;1.70;;;8.00;99.90;;;;;;5022014;28;20535;-35
2023/12/26 14:38:39;;;;;;;4.13;1.20;;;7.90;99.90;;;;;;5020782;28;20060;-35
2023/12/26 14:41:43;;;;;;;7.93;3.17;;;7.90;99.90;;;;;;5028625;28;20059;-35
2023/12/26 14:44:46;;;;;;;5.85;1.60;;;7.80;99.90;;;;;;5023056;28;20108;-35
2023/12/26 14:47:49;;;;;;;5.95;0.90;;;7.80;99.90;;;;;;5020974;28;20136;-35
2023/12/26 14:50:52;;;;;;;4.63;0.73;;;7.70;99.90;;;;;;5021093;28;20054;-35
2023/12/26 14:53:37;;;;;;;;;;;7.70;99.90;;;;;;5021141;28;20057;-35
2023/12/26 14:56:40;;;;;;;3.20;0.90;;;7.60;99.90;;;;;;5021249;28;19917;-35
2023/12/26 14:59:43;;;;;;;5.63;1.00;;;7.60;99.90;;;;;;5004670;28;20053;-48
2023/12/26 15:02:10;;;;;;;3.92;0.70;;;7.60;99.90;;;;;;5006121;28;20058;-35
2023/12/26 15:04:35;;;;;;;5.30;0.70;;;7.50;99.90;;;;;;5000985;28;20526;-39
2023/12/26 15:07:03;;;;;;;5.72;0.70;;;7.50;99.90;;;;;;5004039;28;20050;-35
2023/12/26 15:09:29;;;;;;;6.93;1.13;;;7.50;99.90;;;;;;5024134;28;20437;-44
2023/12/26 15:11:54;;;;;;;4.38;0.70;;;7.40;99.90;;;;;;5027333;28;20052;-35
2023/12/26 15:14:20;;;;;;;3.85;0.73;;;7.40;99.90;;;;;;5019641;28;20057;-36
2023/12/26 15:16:46;;;;;;;6.72;0.55;;;7.40;99.90;;;;;;5055145;28;20128;-35
2023/12/26 15:19:11;;;;;;;9.00;0.80;;;7.40;99.90;;;;;;5010701;28;20135;-35
2023/12/26 15:21:42;;;;;;;7.05;0.50;;;7.30;99.90;;;;;;5010961;28;20063;-35
2023/12/26 15:24:12;;;;;;;3.22;0.57;;;7.30;99.90;;;;;;5018356;28;20140;-35
2023/12/26 15:26:38;;;;;;;3.65;0.50;;;7.20;99.90;;;;;;5022497;28;20122;-34
2023/12/26 15:29:04;;;;;;;6.70;0.85;;;7.20;99.90;;;;;;5023451;28;20053;-35
2023/12/26 15:31:30;;;;;;;6.10;0.60;;;7.20;99.90;;;;;;5021929;28;20496;-35
2023/12/26 15:33:56;;;;;;;3.97;0.50;;;7.10;99.90;;;;;;5022420;28;20054;-36
2023/12/26 15:36:26;;;;;;;7.00;0.70;;;7.10;99.90;;;;;;5023075;28;20064;-35
2023/12/26 15:38:53;;;;;;;6.75;0.75;;;7.00;99.90;;;;;;5026352;28;20053;-36
2023/12/26 15:41:21;;;;;;;4.55;0.55;;;7.00;99.90;;;;;;5021335;28;20072;-35
2023/12/26 15:43:47;;;;;;;4.93;0.60;;;7.00;99.90;;;;;;5018087;28;20053;-36
2023/12/26 15:46:17;;;;;;;4.95;0.70;;;7.00;99.90;;;;;;5014714;28;20057;-35
2023/12/26 15:48:43;;;;;;;9.95;0.98;;;6.90;99.90;;;;;;5018696;28;20057;-35
2023/12/26 15:51:10;;;;;;;5.70;0.75;;;6.90;99.90;;;;;;5023627;28;20060;-36
2023/12/26 15:53:35;;;;;;;7.95;1.50;;;6.90;99.90;;;;;;5023788;28;20053;-35
2023/12/26 15:56:02;;;;;;;7.32;1.13;;;6.90;99.90;;;;;;5050053;28;20384;-35
2023/12/26 15:58:28;;;;;;;7.85;0.77;;;6.90;99.90;;;;;;5019790;28;20058;-35